Time;durP1;ratioP1;P1;durP2;ratioP2;P2;SDS_P1;SDS_P2;PMS_P1;PMS_P2;Temp;Humidity;BMP_temperature;BMP_pressure;BME280_temperature;BME280_humidity;BME280_pressure;Samples;Min_cycle;Max_cycle;Signal;HPM_P1;HPM_P2
2023/02/28 00:01:08;;;;;;;;;12.00;11.50;;;;;5.03;70.51;102441.13;5001827;28;45509;-79
2023/02/28 00:03:35;;;;;;;;;12.25;12.25;;;;;5.02;70.88;102441.03;4998873;28;48223;-78
2023/02/28 00:06:02;;;;;;;;;12.50;8.00;;;;;4.95;70.66;102438.06;5016131;28;46370;-77
2023/02/28 00:08:28;;;;;;;;;17.25;12.75;;;;;5.00;70.94;102446.16;5019078;28;45280;-78
2023/02/28 00:10:53;;;;;;;;;10.75;10.75;;;;;4.97;70.75;102448.59;5038599;28;45485;-76
2023/02/28 00:13:18;;;;;;;;;12.00;10.25;;;;;4.96;71.09;102438.97;5038744;28;51110;-77
2023/02/28 00:15:45;;;;;;;;;12.75;9.00;;;;;4.91;70.96;102428.22;5001034;28;45453;-77
2023/02/28 00:18:11;;;;;;;;;18.50;10.25;;;;;4.93;71.23;102434.44;5036127;28;45532;-77
2023/02/28 00:20:37;;;;;;;;;9.25;9.25;;;;;4.96;71.30;102447.72;5035031;28;45393;-76
2023/02/28 00:23:02;;;;;;;;;10.75;9.25;;;;;4.92;71.46;102440.47;5036028;28;45940;-76
2023/02/28 00:25:27;;;;;;;;;11.75;11.75;;;;;4.94;71.75;102448.41;5034983;28;45521;-77
2023/02/28 00:27:53;;;;;;;;;9.75;9.75;;;;;4.92;71.10;102450.94;5018085;28;45385;-76
2023/02/28 00:30:21;;;;;;;;;9.50;9.50;;;;;4.89;71.16;102452.47;5036387;28;45457;-80
2023/02/28 00:32:46;;;;;;;;;7.50;5.50;;;;;4.88;71.20;102451.56;5018620;28;46515;-79
2023/02/28 00:35:12;;;;;;;;;11.75;11.75;;;;;4.86;71.55;102457.53;5017230;28;45350;-79
2023/02/28 00:37:38;;;;;;;;;12.75;11.50;;;;;4.86;71.24;102454.91;5004384;28;45358;-77
2023/02/28 00:40:06;;;;;;;;;13.50;10.25;;;;;4.85;72.06;102450.50;5020061;28;45431;-79
2023/02/28 00:42:33;;;;;;;;;15.25;11.25;;;;;4.87;71.85;102455.00;5036150;28;45698;-77
2023/02/28 00:44:58;;;;;;;;;9.50;9.00;;;;;4.92;71.46;102457.91;5034869;28;45524;-79
2023/02/28 00:47:24;;;;;;;;;9.00;9.00;;;;;4.91;71.85;102449.16;5018213;28;45579;-77
2023/02/28 00:49:49;;;;;;;;;14.50;9.50;;;;;4.89;71.37;102458.59;5036546;28;45211;-77
2023/02/28 00:52:14;;;;;;;;;9.00;9.00;;;;;4.85;71.35;102456.63;5035546;28;59577;-79
2023/02/28 00:54:40;;;;;;;;;9.00;6.50;;;;;4.84;71.28;102460.03;5034559;28;45510;-80
2023/02/28 00:57:05;;;;;;;;;11.00;8.75;;;;;4.86;70.95;102468.00;5017741;28;51312;-77
2023/02/28 00:59:30;;;;;;;;;10.50;10.50;;;;;4.84;71.68;102477.47;5034687;28;45559;-78
2023/02/28 01:01:56;;;;;;;;;7.00;7.00;;;;;4.84;71.25;102477.47;5036231;28;45276;-77
2023/02/28 01:04:21;;;;;;;;;15.00;9.50;;;;;4.82;71.44;102469.53;5035519;28;48461;-77
2023/02/28 01:06:47;;;;;;;;;12.25;10.25;;;;;4.80;71.59;102460.69;5018155;28;45382;-78
2023/02/28 01:09:12;;;;;;;;;6.75;6.50;;;;;4.80;71.73;102467.63;5032460;28;45421;-76
2023/02/28 01:11:39;;;;;;;;;14.75;10.25;;;;;4.80;71.90;102462.41;5034326;28;54150;-76
2023/02/28 01:14:04;;;;;;;;;8.25;8.25;;;;;4.78;71.68;102464.00;5001056;28;45704;-77
2023/02/28 01:16:30;;;;;;;;;12.25;10.50;;;;;4.77;71.61;102462.22;5014341;28;45489;-76
2023/02/28 01:18:56;;;;;;;;;15.75;9.00;;;;;4.76;71.62;102473.50;5015341;28;45551;-79
2023/02/28 01:21:21;;;;;;;;;9.25;9.25;;;;;4.76;71.65;102476.09;4997440;28;47485;-77
2023/02/28 01:23:48;;;;;;;;;11.00;7.50;;;;;4.70;71.55;102472.31;5014916;28;53946;-77
2023/02/28 01:26:15;;;;;;;;;11.00;9.00;;;;;4.68;71.38;102475.63;5018895;28;45212;-77
2023/02/28 01:28:41;;;;;;;;;12.00;10.25;;;;;4.68;71.69;102473.00;5020864;28;45418;-77
2023/02/28 01:31:08;;;;;;;;;7.75;7.75;;;;;4.63;71.72;102475.34;5020980;28;45646;-79
2023/02/28 01:33:34;;;;;;;;;14.75;9.25;;;;;4.63;71.76;102480.56;5021052;28;45375;-80
2023/02/28 01:36:00;;;;;;;;;10.00;8.00;;;;;4.61;71.69;102479.59;5021374;28;45326;-77
2023/02/28 01:38:26;;;;;;;;;8.25;8.00;;;;;4.54;71.63;102477.41;5037882;28;45281;-79
2023/02/28 01:40:51;;;;;;;;;12.50;8.75;;;;;4.56;71.96;102477.50;5037506;28;48829;-80
2023/02/28 01:43:29;;;;;;;;;14.75;10.75;;;;;4.54;71.59;102479.13;5020701;28;45558;-77
2023/02/28 01:45:56;;;;;;;;;6.75;6.25;;;;;4.51;71.36;102477.19;5014313;28;45461;-77
2023/02/28 01:48:26;;;;;;;;;12.50;11.00;;;;;4.49;71.52;102471.00;5004318;28;45189;-77
2023/02/28 01:50:53;;;;;;;;;9.25;7.00;;;;;4.49;71.71;102468.38;5003831;28;48702;-79
2023/02/28 01:53:25;;;;;;;;;12.00;7.75;;;;;4.47;72.20;102452.59;5038399;28;50165;-77
2023/02/28 01:55:53;;;;;;;;;8.75;7.50;;;;;4.50;72.29;102466.66;5019363;28;45369;-77
2023/02/28 01:58:18;;;;;;;;;13.25;8.50;;;;;4.51;71.93;102461.50;5039149;28;45321;-78
2023/02/28 02:00:44;;;;;;;;;8.50;5.50;;;;;4.50;71.91;102461.44;5018516;28;63188;-77
2023/02/28 02:03:13;;;;;;;;;13.50;9.00;;;;;4.48;71.86;102466.56;5004141;28;45300;-76
2023/02/28 02:05:40;;;;;;;;;10.50;8.00;;;;;4.47;71.43;102462.13;5020582;28;45328;-77
2023/02/28 02:08:09;;;;;;;;;10.25;8.50;;;;;4.43;71.83;102461.06;5021034;28;45421;-77
2023/02/28 02:10:54;;;;;;;;;11.00;8.50;;;;;4.42;72.08;102458.31;5021936;28;45487;-80
2023/02/28 02:13:41;;;;;;;;;9.00;7.75;;;;;4.41;72.19;102459.13;5012006;28;45232;-79
2023/02/28 02:16:21;;;;;;;;;9.00;8.00;;;;;4.39;72.20;102463.38;5038309;28;45479;-77
2023/02/28 02:18:53;;;;;;;;;8.75;8.00;;;;;4.37;71.89;102454.53;5038600;28;45302;-77
2023/02/28 02:21:52;;;;;;;;;7.00;7.00;;;;;4.35;71.76;102450.91;5016670;28;45952;-77
2023/02/28 02:24:24;;;;;;;;;11.25;8.00;;;;;4.31;71.62;102447.19;5032544;28;45280;-77
2023/02/28 02:26:55;;;;;;;;;8.50;6.75;;;;;4.28;71.66;102449.63;5038443;28;45489;-77
2023/02/28 02:29:41;;;;;;;;;7.25;7.00;;;;;4.27;71.77;102445.22;5037964;28;45278;-77
2023/02/28 02:32:41;;;;;;;;;7.00;7.00;;;;;4.28;71.82;102446.13;5016875;28;45736;-80
2023/02/28 02:35:27;;;;;;;;;11.75;8.50;;;;;4.26;71.59;102451.25;5029166;28;45541;-77
2023/02/28 02:37:55;;;;;;;;;15.50;8.25;;;;;4.28;71.60;102447.03;5019340;28;45336;-78
2023/02/28 02:40:25;;;;;;;;;10.00;7.25;;;;;4.26;71.46;102434.66;5038296;28;45157;-76
2023/02/28 02:42:58;;;;;;;;;8.75;8.75;;;;;4.24;71.74;102441.50;5003314;28;47726;-80
2023/02/28 02:45:42;;;;;;;;;8.00;5.25;;;;;4.26;71.51;102446.03;5020562;28;45568;-80
2023/02/28 02:48:10;;;;;;;;;6.75;5.75;;;;;4.22;71.51;102451.88;5038033;28;45282;-80
2023/02/28 02:50:39;;;;;;;;;6.25;6.25;;;;;4.20;71.44;102449.13;5020143;28;45513;-77
2023/02/28 02:53:07;;;;;;;;;12.00;7.00;;;;;4.17;71.48;102448.97;5037505;28;46052;-78
2023/02/28 02:55:35;;;;;;;;;7.00;6.25;;;;;4.16;71.23;102447.16;5019864;28;45517;-79
2023/02/28 02:58:04;;;;;;;;;6.00;4.00;;;;;4.14;71.29;102451.38;5000966;28;45413;-79
2023/02/28 03:00:35;;;;;;;;;9.00;7.25;;;;;4.15;71.52;102444.44;5017972;28;45386;-77
2023/02/28 03:03:01;;;;;;;;;8.00;7.00;;;;;4.12;71.36;102454.72;5002948;28;47593;-77
2023/02/28 03:05:32;;;;;;;;;8.75;8.25;;;;;4.10;71.55;102446.78;5002355;28;45385;-80
2023/02/28 03:07:57;;;;;;;;;10.50;6.25;;;;;4.06;71.44;102436.94;5032512;28;45284;-77
2023/02/28 03:10:34;;;;;;;;;9.50;7.00;;;;;4.04;71.21;102443.75;5021387;28;48113;-77
2023/02/28 03:13:26;;;;;;;;;11.00;7.50;;;;;4.03;71.23;102439.34;5019130;28;48614;-77
2023/02/28 03:16:03;;;;;;;;;8.75;6.25;;;;;4.02;71.49;102447.09;5018893;28;46314;-77
2023/02/28 03:18:34;;;;;;;;;8.25;6.50;;;;;4.00;71.44;102453.94;5031281;28;45434;-77
2023/02/28 03:21:12;;;;;;;;;7.75;5.00;;;;;3.98;71.79;102451.22;5031015;28;45557;-78
2023/02/28 03:23:52;;;;;;;;;7.25;5.00;;;;;3.97;71.28;102452.03;5037030;28;45873;-80
2023/02/28 03:26:26;;;;;;;;;5.00;2.00;;;;;3.99;72.11;102452.13;5029120;28;45331;-79
2023/02/28 03:29:03;;;;;;;;;8.50;7.25;;;;;3.97;72.15;102453.75;5001583;28;45375;-77
2023/02/28 03:31:32;;;;;;;;;8.25;8.25;;;;;3.97;71.94;102451.13;5003103;28;45531;-77
2023/02/28 03:34:00;;;;;;;;;9.00;8.00;;;;;3.98;71.98;102459.06;5037270;28;46743;-77
2023/02/28 03:36:29;;;;;;;;;8.75;8.00;;;;;3.94;72.29;102452.75;5037122;28;45355;-77
2023/02/28 03:39:02;;;;;;;;;8.75;7.00;;;;;3.95;71.89;102453.66;5019385;28;45427;-79
2023/02/28 03:41:41;;;;;;;;;9.50;7.75;;;;;3.94;71.89;102462.28;5019449;28;45819;-77
2023/02/28 03:44:15;;;;;;;;;14.25;7.75;;;;;3.93;72.02;102460.47;4999135;28;47938;-79
2023/02/28 03:46:44;;;;;;;;;8.25;4.75;;;;;3.90;72.17;102442.91;5003023;28;46410;-77
2023/02/28 03:49:20;;;;;;;;;13.00;7.50;;;;;3.92;71.91;102445.59;5019197;28;45387;-77
2023/02/28 03:51:47;;;;;;;;;8.25;5.75;;;;;3.90;71.96;102442.00;5008083;28;45557;-78
2023/02/28 03:54:23;;;;;;;;;9.00;8.25;;;;;3.92;72.32;102451.72;5002241;28;47661;-77
2023/02/28 03:56:54;;;;;;;;;9.75;7.75;;;;;3.93;71.75;102450.00;5009267;28;45559;-77
2023/02/28 03:59:28;;;;;;;;;9.50;7.50;;;;;3.93;71.91;102450.00;5002133;28;45253;-77
2023/02/28 04:01:55;;;;;;;;;8.75;7.25;;;;;3.91;71.86;102446.41;5019209;28;45453;-77
2023/02/28 04:04:20;;;;;;;;;7.75;7.75;;;;;3.92;71.67;102446.50;5019036;28;45819;-77
2023/02/28 04:06:50;;;;;;;;;8.75;7.75;;;;;3.95;71.80;102458.88;4998816;28;45883;-76
2023/02/28 04:09:15;;;;;;;;;5.75;5.75;;;;;3.96;71.76;102458.06;5034034;28;45500;-75
2023/02/28 04:11:44;;;;;;;;;9.75;7.25;;;;;3.96;71.60;102465.00;5018959;28;45457;-77
2023/02/28 04:14:10;;;;;;;;;8.00;6.25;;;;;3.95;71.76;102466.72;5001612;28;48348;-79
2023/02/28 04:16:38;;;;;;;;;8.00;5.75;;;;;3.94;71.34;102467.50;5018210;28;45417;-81
2023/02/28 04:19:05;;;;;;;;;11.25;8.50;;;;;3.97;71.37;102466.81;5002096;28;45244;-78
2023/02/28 04:21:32;;;;;;;;;7.00;7.00;;;;;3.94;71.63;102473.66;5002292;28;45633;-77
2023/02/28 04:24:00;;;;;;;;;8.00;7.00;;;;;3.93;71.24;102460.47;5018446;28;47525;-79
2023/02/28 04:26:29;;;;;;;;;13.75;7.00;;;;;3.93;71.26;102460.47;5018982;28;45516;-77
2023/02/28 04:28:55;;;;;;;;;9.75;6.75;;;;;3.98;71.05;102476.44;5018180;28;45372;-77
2023/02/28 04:31:20;;;;;;;;;6.25;6.25;;;;;3.98;71.42;102476.44;5035458;28;45255;-78
2023/02/28 04:33:46;;;;;;;;;9.00;8.00;;;;;3.98;71.47;102472.13;5017801;28;56651;-77
2023/02/28 04:36:11;;;;;;;;;8.50;8.50;;;;;3.98;71.36;102485.19;5018786;28;45450;-78
2023/02/28 04:38:37;;;;;;;;;9.25;8.00;;;;;3.98;71.66;102479.97;5018591;28;45490;-79
2023/02/28 04:41:04;;;;;;;;;12.00;8.00;;;;;3.94;71.73;102467.50;5036171;28;45287;-78
2023/02/28 04:43:30;;;;;;;;;10.50;10.00;;;;;3.97;71.88;102485.09;5018258;28;47087;-79
2023/02/28 04:45:58;;;;;;;;;15.50;9.50;;;;;3.97;71.70;102485.09;5017776;28;45379;-77
2023/02/28 04:48:25;;;;;;;;;12.75;9.00;;;;;3.92;71.12;102483.09;5018519;28;45244;-80
2023/02/28 04:50:51;;;;;;;;;11.50;9.25;;;;;3.90;70.82;102489.94;5018334;28;45652;-77
2023/02/28 04:53:16;;;;;;;;;7.50;7.50;;;;;3.85;70.62;102487.84;5001553;28;48966;-77
2023/02/28 04:55:42;;;;;;;;;8.50;7.75;;;;;3.76;70.74;102489.84;5018193;28;45267;-77
2023/02/28 04:58:07;;;;;;;;;8.00;7.00;;;;;3.73;70.18;102489.63;5001727;28;45356;-75
2023/02/28 05:00:33;;;;;;;;;7.75;7.00;;;;;3.66;70.43;102491.84;5018364;28;45609;-78
2023/02/28 05:02:58;;;;;;;;;8.75;7.25;;;;;3.59;70.33;102493.97;5038485;28;58087;-77
2023/02/28 05:05:23;;;;;;;;;11.00;7.00;;;;;3.56;70.39;102499.88;5004744;28;57807;-77
2023/02/28 05:07:49;;;;;;;;;10.00;9.75;;;;;3.53;70.44;102496.19;5037761;28;47210;-76
2023/02/28 05:10:14;;;;;;;;;11.00;10.50;;;;;3.49;70.99;102497.66;5038324;28;45470;-76
2023/02/28 05:12:40;;;;;;;;;14.00;7.75;;;;;3.46;71.05;102493.94;5020844;28;63830;-79
2023/02/28 05:15:05;;;;;;;;;17.50;10.50;;;;;3.45;71.24;102499.97;5010511;28;45397;-79
2023/02/28 05:17:32;;;;;;;;;10.75;8.75;;;;;3.41;71.81;102504.09;5022740;28;45467;-77
2023/02/28 05:19:57;;;;;;;;;10.75;8.00;;;;;3.41;71.67;102504.09;4981609;28;52602;-76
2023/02/28 05:22:23;;;;;;;;;17.00;10.00;;;;;3.38;71.50;102514.34;5002103;28;45716;-77
2023/02/28 05:24:48;;;;;;;;;11.50;11.50;;;;;3.38;71.57;102504.78;5001290;28;52674;-77
2023/02/28 05:27:13;;;;;;;;;12.25;7.75;;;;;3.35;71.61;102511.50;4997783;28;45516;-77
2023/02/28 05:29:45;;;;;;;;;13.00;11.00;;;;;3.36;71.88;102516.84;5012115;28;45486;-79
2023/02/28 05:32:11;;;;;;;;;19.00;10.50;;;;;3.40;72.37;102517.94;5031250;28;45931;-77
2023/02/28 05:34:37;;;;;;;;;11.25;10.50;;;;;3.40;72.84;102520.56;5016535;28;45374;-77
2023/02/28 05:37:03;;;;;;;;;14.75;14.25;;;;;3.40;72.77;102512.72;5009426;28;45364;-76
2023/02/28 05:39:29;;;;;;;;;18.75;12.00;;;;;3.38;72.66;102519.56;5013696;28;45264;-77
2023/02/28 05:41:54;;;;;;;;;13.75;10.00;;;;;3.42;73.60;102524.19;5024445;28;50768;-77
2023/02/28 05:44:20;;;;;;;;;16.75;15.25;;;;;3.45;73.43;102528.69;5007563;28;46278;-76
2023/02/28 05:46:45;;;;;;;;;17.75;15.00;;;;;3.45;73.69;102532.22;5005532;28;45715;-77
2023/02/28 05:49:10;;;;;;;;;16.00;13.75;;;;;3.43;74.04;102528.59;5002246;28;46610;-77
2023/02/28 05:51:36;;;;;;;;;14.75;14.25;;;;;3.41;73.79;102533.72;5019793;28;61170;-76
2023/02/28 05:54:01;;;;;;;;;20.50;14.50;;;;;3.39;73.55;102529.19;5001032;28;45331;-77
2023/02/28 05:56:27;;;;;;;;;13.75;13.75;;;;;3.33;73.27;102519.25;5025501;28;45140;-77
2023/02/28 05:58:53;;;;;;;;;13.75;13.75;;;;;3.34;73.62;102531.50;5019708;28;45723;-77
2023/02/28 06:01:23;;;;;;;;;18.00;14.00;;;;;3.33;73.98;102536.63;5000624;28;45632;-79
2023/02/28 06:03:49;;;;;;;;;17.25;14.50;;;;;3.32;74.16;102532.19;4994943;28;46412;-77
2023/02/28 06:06:14;;;;;;;;;20.00;14.75;;;;;3.29;75.26;102522.44;5014979;28;45831;-81
2023/02/28 06:08:40;;;;;;;;;15.75;12.50;;;;;3.29;74.89;102531.97;5014790;28;53876;-79
2023/02/28 06:11:06;;;;;;;;;17.50;15.25;;;;;3.27;74.84;102529.28;5009405;28;51219;-77
2023/02/28 06:13:31;;;;;;;;;20.25;18.00;;;;;3.31;75.09;102533.91;5131444;22;47833;-76
2023/02/28 06:16:00;;;;;;;;;20.25;17.75;;;;;3.29;75.46;102535.50;5022004;28;45374;-77
2023/02/28 06:18:26;;;;;;;;;22.75;16.50;;;;;3.26;75.01;102529.19;5008237;28;45256;-76
2023/02/28 06:20:55;;;;;;;;;18.25;16.75;;;;;3.25;74.84;102533.50;5017413;28;53089;-77
2023/02/28 06:23:21;;;;;;;;;18.00;17.25;;;;;3.25;74.87;102528.28;5014207;28;45311;-76
2023/02/28 06:25:47;;;;;;;;;20.75;15.25;;;;;3.24;75.30;102533.38;5038734;28;45404;-76
2023/02/28 06:28:12;;;;;;;;;22.50;19.75;;;;;3.26;75.75;102531.78;5038357;28;45458;-77
2023/02/28 06:30:38;;;;;;;;;24.25;16.25;;;;;3.27;75.63;102530.97;5012758;28;47414;-76
2023/02/28 06:33:03;;;;;;;;;25.25;19.25;;;;;3.27;75.79;102538.81;5038096;28;45410;-76
2023/02/28 06:35:29;;;;;;;;;24.00;16.00;;;;;3.28;75.80;102548.44;5020487;28;45400;-76
2023/02/28 06:37:54;;;;;;;;;22.75;18.00;;;;;3.27;75.84;102544.03;5036817;28;45496;-76
2023/02/28 06:40:20;;;;;;;;;16.50;13.25;;;;;3.26;75.98;102542.22;5020188;28;46765;-77
2023/02/28 06:42:45;;;;;;;;;29.75;20.50;;;;;3.25;75.77;102550.84;5019849;28;45292;-76
2023/02/28 06:45:11;;;;;;;;;15.25;13.00;;;;;3.24;75.86;102552.53;5020301;28;45386;-77
2023/02/28 06:47:37;;;;;;;;;19.50;15.75;;;;;3.24;76.38;102549.94;5020664;28;45477;-79
2023/02/28 06:50:04;;;;;;;;;23.50;18.50;;;;;3.22;76.67;102543.72;5020030;28;46621;-76
2023/02/28 06:52:30;;;;;;;;;24.25;19.50;;;;;3.24;76.70;102542.09;5019486;28;45399;-76
2023/02/28 06:54:59;;;;;;;;;23.75;17.50;;;;;3.26;77.08;102550.06;5020156;28;45697;-78
2023/02/28 06:57:27;;;;;;;;;23.00;21.00;;;;;3.26;77.09;102540.53;5036185;28;45546;-76
2023/02/28 06:59:52;;;;;;;;;22.75;17.75;;;;;3.28;76.97;102538.00;5019682;28;45460;-77
2023/02/28 07:02:18;;;;;;;;;24.25;18.75;;;;;3.31;77.08;102544.34;5037247;28;51908;-77
2023/02/28 07:04:44;;;;;;;;;24.50;18.75;;;;;3.26;76.99;102532.69;5019560;28;53924;-76
2023/02/28 07:07:09;;;;;;;;;23.75;17.00;;;;;3.30;77.23;102536.41;5037563;28;45367;-77
2023/02/28 07:09:35;;;;;;;;;23.00;20.25;;;;;3.30;77.16;102542.56;5002296;28;58916;-79
2023/02/28 07:12:00;;;;;;;;;19.50;14.25;;;;;3.29;78.06;102542.41;5002958;28;46469;-76
2023/02/28 07:14:25;;;;;;;;;32.00;21.25;;;;;3.28;77.74;102530.19;5035584;28;48287;-76
2023/02/28 07:16:51;;;;;;;;;22.75;18.75;;;;;3.35;78.31;102550.66;5014940;28;45469;-76
2023/02/28 07:19:16;;;;;;;;;20.25;18.00;;;;;3.36;78.42;102548.19;5018249;28;46827;-77
2023/02/28 07:21:42;;;;;;;;;24.75;20.25;;;;;3.34;78.87;102535.81;5010048;28;54237;-78
2023/02/28 07:24:08;;;;;;;;;23.50;18.00;;;;;3.38;78.08;102537.84;5037128;28;45275;-76
2023/02/28 07:26:36;;;;;;;;;23.25;18.00;;;;;3.36;78.02;102544.66;5019909;28;45486;-76
2023/02/28 07:29:02;;;;;;;;;22.75;20.25;;;;;3.35;78.17;102540.22;5015549;28;46729;-76
2023/02/28 07:31:27;;;;;;;;;24.25;22.25;;;;;3.37;77.51;102551.69;5031717;28;45308;-76
2023/02/28 07:33:53;;;;;;;;;25.25;17.75;;;;;3.37;78.75;102547.38;5037038;28;45547;-76
2023/02/28 07:36:19;;;;;;;;;22.25;19.50;;;;;3.40;78.56;102554.50;5037543;28;45600;-77
2023/02/28 07:38:49;;;;;;;;;27.50;22.00;;;;;3.40;78.68;102546.66;5035575;28;48690;-77
2023/02/28 07:41:20;;;;;;;;;24.75;18.00;;;;;3.47;78.67;102566.28;5019325;28;45295;-76
2023/02/28 07:43:45;;;;;;;;;23.25;19.00;;;;;3.47;79.35;102550.63;5035949;28;45382;-76
2023/02/28 07:46:14;;;;;;;;;28.50;21.00;;;;;3.55;79.16;102558.13;5002323;28;45702;-76
2023/02/28 07:48:40;;;;;;;;;20.25;15.50;;;;;3.56;78.86;102559.03;5019476;28;45799;-76
2023/02/28 07:51:05;;;;;;;;;24.50;20.00;;;;;3.57;78.71;102553.94;5018601;28;45296;-76
2023/02/28 07:53:31;;;;;;;;;20.50;17.50;;;;;3.61;78.53;102555.03;5018894;28;45259;-76
2023/02/28 07:55:57;;;;;;;;;25.00;21.75;;;;;3.63;78.46;102563.91;5036751;28;45590;-78
2023/02/28 07:58:24;;;;;;;;;24.75;19.75;;;;;3.64;79.25;102560.47;5019146;28;45646;-77
2023/02/28 08:00:50;;;;;;;;;28.50;21.00;;;;;3.70;79.68;102573.94;5018664;28;45370;-78
2023/02/28 08:03:16;;;;;;;;;24.75;22.50;;;;;3.73;79.76;102565.38;5019159;28;45581;-76
2023/02/28 08:05:41;;;;;;;;;21.00;18.75;;;;;3.74;79.46;102575.97;5019073;28;45407;-77
2023/02/28 08:08:07;;;;;;;;;22.00;21.00;;;;;3.82;79.42;102581.69;5036545;28;46070;-76
2023/02/28 08:10:33;;;;;;;;;22.00;21.25;;;;;3.84;79.76;102580.09;5018605;28;45357;-75
2023/02/28 08:12:58;;;;;;;;;27.00;22.50;;;;;3.82;79.15;102566.00;5036278;28;53367;-77
2023/02/28 08:15:24;;;;;;;;;29.75;19.25;;;;;3.82;79.24;102566.91;5017819;28;48947;-78
2023/02/28 08:17:49;;;;;;;;;25.50;20.75;;;;;3.86;78.95;102573.25;5032172;28;50662;-76
2023/02/28 08:20:14;;;;;;;;;23.75;19.50;;;;;3.88;79.31;102571.63;5017556;28;60367;-77
2023/02/28 08:22:40;;;;;;;;;27.50;23.00;;;;;3.90;79.66;102564.81;5009564;28;45531;-76
2023/02/28 08:25:07;;;;;;;;;36.50;25.50;;;;;3.92;79.56;102576.25;5018725;28;45593;-80
2023/02/28 08:27:32;;;;;;;;;19.25;18.75;;;;;3.94;79.58;102562.50;4990039;28;48752;-76
2023/02/28 08:29:57;;;;;;;;;25.75;16.25;;;;;3.99;79.96;102567.09;5035608;28;56319;-80
2023/02/28 08:32:22;;;;;;;;;25.50;22.00;;;;;4.00;79.51;102568.94;5018332;28;48013;-76
2023/02/28 08:34:48;;;;;;;;;23.00;16.75;;;;;4.04;79.85;102577.06;5036068;28;50435;-77
2023/02/28 08:37:13;;;;;;;;;22.00;20.25;;;;;4.06;79.69;102577.19;5020463;28;46412;-79
2023/02/28 08:39:39;;;;;;;;;22.25;18.25;;;;;4.06;79.89;102574.56;5022003;28;45180;-76
2023/02/28 08:42:04;;;;;;;;;22.50;16.50;;;;;4.12;79.89;102582.81;5022114;28;45378;-78
2023/02/28 08:44:30;;;;;;;;;24.50;22.75;;;;;4.14;79.51;102575.94;5039019;28;45247;-76
2023/02/28 08:46:55;;;;;;;;;21.25;14.50;;;;;4.18;80.02;102577.97;5021500;28;48752;-76
2023/02/28 08:49:20;;;;;;;;;24.75;20.00;;;;;4.23;79.83;102587.00;5038820;28;54315;-76
2023/02/28 08:51:46;;;;;;;;;22.25;17.75;;;;;4.27;80.19;102572.44;5022011;28;45530;-77
2023/02/28 08:54:19;;;;;;;;;22.00;15.00;;;;;4.31;79.50;102587.50;5020909;28;54598;-76
2023/02/28 08:56:45;;;;;;;;;26.50;20.75;;;;;4.37;79.62;102575.75;5021844;28;48767;-78
2023/02/28 08:59:11;;;;;;;;;15.25;15.25;;;;;4.42;79.79;102579.56;5004843;28;45450;-76
2023/02/28 09:01:36;;;;;;;;;24.75;23.00;;;;;4.43;79.23;102575.22;5021527;28;50304;-79
2023/02/28 09:04:02;;;;;;;;;15.50;14.25;;;;;4.50;79.26;102573.91;5004717;28;52618;-76
2023/02/28 09:06:27;;;;;;;;;21.25;16.75;;;;;4.52;79.08;102565.31;5039201;28;45948;-76
2023/02/28 09:08:58;;;;;;;;;26.75;23.00;;;;;4.55;78.86;102575.09;5021451;28;45272;-78
2023/02/28 09:11:23;;;;;;;;;20.00;16.25;;;;;4.58;79.31;102575.25;5021687;28;45283;-76
2023/02/28 09:13:48;;;;;;;;;22.75;19.00;;;;;4.64;79.40;102583.53;5020582;28;45499;-76
2023/02/28 09:16:16;;;;;;;;;22.25;15.25;;;;;4.66;79.22;102581.91;5021884;28;45774;-76
2023/02/28 09:18:42;;;;;;;;;25.50;21.50;;;;;4.71;78.80;102578.75;5039245;28;45371;-77
2023/02/28 09:21:10;;;;;;;;;23.25;16.75;;;;;4.77;78.47;102585.19;5017139;28;45474;-78
2023/02/28 09:23:37;;;;;;;;;18.25;15.25;;;;;4.80;78.36;102582.78;5035692;28;45390;-77
2023/02/28 09:26:03;;;;;;;;;19.25;14.75;;;;;4.84;78.35;102584.75;5021686;28;46006;-78
2023/02/28 09:28:29;;;;;;;;;24.25;18.50;;;;;4.89;78.36;102571.16;5038698;28;45433;-76
2023/02/28 09:30:55;;;;;;;;;20.50;16.75;;;;;4.91;78.21;102579.13;5001223;28;45575;-78
2023/02/28 09:33:21;;;;;;;;;22.75;18.75;;;;;4.97;78.04;102566.41;5018241;28;45565;-76
2023/02/28 09:35:50;;;;;;;;;21.75;16.50;;;;;5.05;78.21;102586.09;5037368;28;46474;-76
2023/02/28 09:38:17;;;;;;;;;19.75;18.75;;;;;5.10;78.14;102583.75;5020925;28;45411;-76
2023/02/28 09:40:50;;;;;;;;;17.75;15.50;;;;;5.15;77.98;102577.97;5021271;28;45515;-77
2023/02/28 09:43:17;;;;;;;;;22.50;18.00;;;;;5.18;77.72;102588.66;5020941;28;45280;-76
2023/02/28 09:45:48;;;;;;;;;20.25;15.00;;;;;5.22;77.71;102580.19;5021329;28;45695;-76
2023/02/28 09:48:18;;;;;;;;;19.00;19.00;;;;;5.30;77.52;102591.09;5020500;28;45379;-76
2023/02/28 09:50:47;;;;;;;;;19.75;16.50;;;;;5.31;77.34;102569.34;5020997;28;45280;-77
2023/02/28 09:53:22;;;;;;;;;20.75;15.75;;;;;5.38;77.20;102567.97;5021270;28;45422;-77
2023/02/28 09:55:51;;;;;;;;;17.00;17.00;;;;;5.42;77.13;102562.13;5038295;28;46743;-76
2023/02/28 09:58:23;;;;;;;;;17.75;13.25;;;;;5.52;78.04;102570.63;5004269;28;46187;-76
2023/02/28 10:00:58;;;;;;;;;20.25;17.75;;;;;5.58;77.16;102569.19;5020794;28;45327;-76
2023/02/28 10:03:31;;;;;;;;;14.50;12.50;;;;;5.66;77.20;102560.97;5004322;28;45250;-76
2023/02/28 10:06:17;;;;;;;;;14.00;14.00;;;;;5.73;76.74;102570.97;5036842;28;48050;-76
2023/02/28 10:09:02;;;;;;;;;15.25;14.00;;;;;5.82;76.67;102564.47;5020680;28;45453;-77
2023/02/28 10:11:30;;;;;;;;;12.25;11.75;;;;;5.87;76.93;102561.31;5001623;28;45548;-76
2023/02/28 10:14:02;;;;;;;;;12.25;9.50;;;;;5.92;76.84;102567.75;5003733;28;45583;-76
2023/02/28 10:16:53;;;;;;;;;17.75;13.00;;;;;5.98;76.82;102557.63;5017300;28;46512;-76
2023/02/28 10:19:32;;;;;;;;;17.75;13.75;;;;;6.07;76.26;102559.84;5008440;28;46135;-77
2023/02/28 10:22:05;;;;;;;;;15.00;15.00;;;;;6.12;76.20;102545.28;5019192;28;45453;-75
2023/02/28 10:24:42;;;;;;;;;21.50;17.75;;;;;6.14;76.33;102548.00;5020713;28;45455;-76
2023/02/28 10:27:37;;;;;;;;;20.50;14.00;;;;;6.23;76.26;102548.50;5003613;28;47545;-76
2023/02/28 10:30:03;;;;;;;;;17.75;16.00;;;;;6.29;75.93;102551.50;5019731;28;56461;-77
2023/02/28 10:32:34;;;;;;;;;15.25;15.00;;;;;6.35;75.92;102549.22;5038121;28;45386;-76
2023/02/28 10:35:21;;;;;;;;;19.25;18.25;;;;;6.42;75.58;102539.94;5020180;28;45563;-76
2023/02/28 10:37:49;;;;;;;;;16.25;15.75;;;;;6.56;75.90;102529.41;5020330;28;46100;-76
2023/02/28 10:40:17;;;;;;;;;18.00;14.75;;;;;6.70;75.50;102521.34;5019949;28;45522;-76
2023/02/28 10:42:57;;;;;;;;;7.50;7.50;;;;;6.76;75.15;102522.56;5037822;28;45184;-77
2023/02/28 10:45:23;;;;;;;;;12.25;12.25;;;;;6.85;74.07;102516.03;5038221;28;45499;-76
2023/02/28 10:47:56;;;;;;;;;10.00;10.00;;;;;7.00;73.39;102524.72;5019828;28;45833;-76
2023/02/28 10:50:46;;;;;;;;;6.25;6.25;;;;;7.21;72.29;102515.31;5019972;28;45446;-76
2023/02/28 10:53:26;;;;;;;;;7.00;7.00;;;;;7.40;71.28;102519.78;5025558;28;45473;-79
2023/02/28 10:56:02;;;;;;;;;13.25;8.75;;;;;7.56;69.65;102509.25;5037872;28;45306;-77
2023/02/28 10:58:48;;;;;;;;;15.00;12.00;;;;;7.70;67.63;102498.50;5019102;28;46713;-79
2023/02/28 11:01:40;;;;;;;;;7.00;5.75;;;;;7.77;67.18;102512.00;5035479;28;45552;-76
2023/02/28 11:04:29;;;;;;;;;8.25;8.25;;;;;7.90;68.24;102508.28;5037865;28;45425;-79
2023/02/28 11:07:03;;;;;;;;;10.50;10.25;;;;;7.94;67.33;102497.09;5029612;28;45500;-76
2023/02/28 11:09:34;;;;;;;;;7.00;5.00;;;;;7.97;65.85;102494.56;5019181;28;45999;-78
2023/02/28 11:12:01;;;;;;;;;9.25;9.25;;;;;7.94;65.23;102488.28;5019723;28;45399;-77
2023/02/28 11:14:34;;;;;;;;;8.25;7.00;;;;;7.90;65.51;102495.13;5019379;28;45343;-76
2023/02/28 11:17:12;;;;;;;;;6.25;6.00;;;;;7.98;65.03;102480.59;5015010;28;45663;-76
2023/02/28 11:19:46;;;;;;;;;11.50;6.25;;;;;8.13;64.47;102490.94;5019618;28;45561;-76
2023/02/28 11:22:19;;;;;;;;;6.50;6.00;;;;;8.24;62.13;102492.34;5010735;28;45521;-75
2023/02/28 11:24:46;;;;;;;;;7.00;6.00;;;;;8.36;63.29;102481.53;5019696;28;45521;-75
2023/02/28 11:27:52;;;;;;;;;6.00;6.00;;;;;8.57;62.62;102484.25;5002592;28;45704;-76
2023/02/28 11:30:28;;;;;;;;;9.25;6.75;;;;;8.73;63.84;102473.56;4996143;28;46778;-76
2023/02/28 11:32:53;;;;;;;;;8.50;8.00;;;;;8.92;63.09;102467.41;5037336;28;45290;-76